sensor_id;sensor_type;location;lat;lon;timestamp;P1;durP1;ratioP1;P2;durP2;ratioP2
58446;SDS011;44240;51.840;7.258;2023-03-01T00:02:12;9.75;;;7.05;;
58446;SDS011;44240;51.840;7.258;2023-03-01T00:04:38;11.52;;;7.00;;
58446;SDS011;44240;51.840;7.258;2023-03-01T00:07:03;10.23;;;7.50;;
58446;SDS011;44240;51.840;7.258;2023-03-01T00:09:29;10.25;;;7.72;;
58446;SDS011;44240;51.840;7.258;2023-03-01T00:11:54;8.32;;;6.75;;
58446;SDS011;44240;51.840;7.258;2023-03-01T00:14:19;9.55;;;7.00;;
58446;SDS011;44240;51.840;7.258;2023-03-01T00:16:45;9.27;;;7.07;;
58446;SDS011;44240;51.840;7.258;2023-03-01T00:19:16;8.35;;;7.30;;
58446;SDS011;44240;51.840;7.258;2023-03-01T00:21:43;10.52;;;6.72;;
58446;SDS011;44240;51.840;7.258;2023-03-01T00:24:09;13.30;;;7.70;;
58446;SDS011;44240;51.840;7.258;2023-03-01T00:26:35;12.20;;;7.82;;
58446;SDS011;44240;51.840;7.258;2023-03-01T00:29:01;10.00;;;7.13;;
58446;SDS011;44240;51.840;7.258;2023-03-01T00:31:27;9.48;;;7.28;;
58446;SDS011;44240;51.840;7.258;2023-03-01T00:33:56;15.43;;;7.82;;
58446;SDS011;44240;51.840;7.258;2023-03-01T00:36:23;10.50;;;7.85;;
58446;SDS011;44240;51.840;7.258;2023-03-01T00:38:51;11.77;;;7.55;;
58446;SDS011;44240;51.840;7.258;2023-03-01T00:41:17;10.45;;;7.97;;
58446;SDS011;44240;51.840;7.258;2023-03-01T00:43:44;10.05;;;8.15;;
58446;SDS011;44240;51.840;7.258;2023-03-01T00:46:11;9.82;;;7.45;;
58446;SDS011;44240;51.840;7.258;2023-03-01T00:48:38;11.57;;;8.18;;
58446;SDS011;44240;51.840;7.258;2023-03-01T00:51:05;9.05;;;7.30;;
58446;SDS011;44240;51.840;7.258;2023-03-01T00:53:35;9.27;;;7.38;;
58446;SDS011;44240;51.840;7.258;2023-03-01T00:56:01;10.45;;;6.90;;
58446;SDS011;44240;51.840;7.258;2023-03-01T00:58:27;11.88;;;8.32;;
58446;SDS011;44240;51.840;7.258;2023-03-01T01:00:53;11.85;;;7.72;;
58446;SDS011;44240;51.840;7.258;2023-03-01T01:03:18;10.85;;;7.72;;
58446;SDS011;44240;51.840;7.258;2023-03-01T01:05:44;11.63;;;7.70;;
58446;SDS011;44240;51.840;7.258;2023-03-01T01:08:10;11.40;;;8.05;;
58446;SDS011;44240;51.840;7.258;2023-03-01T01:10:35;13.32;;;8.82;;
58446;SDS011;44240;51.840;7.258;2023-03-01T01:13:01;9.18;;;7.70;;
58446;SDS011;44240;51.840;7.258;2023-03-01T01:15:27;10.07;;;8.23;;
58446;SDS011;44240;51.840;7.258;2023-03-01T01:17:53;11.27;;;8.38;;
58446;SDS011;44240;51.840;7.258;2023-03-01T01:20:19;14.63;;;8.90;;
58446;SDS011;44240;51.840;7.258;2023-03-01T01:22:45;10.55;;;7.72;;
58446;SDS011;44240;51.840;7.258;2023-03-01T01:25:11;9.95;;;7.78;;
58446;SDS011;44240;51.840;7.258;2023-03-01T01:27:36;11.02;;;7.90;;
58446;SDS011;44240;51.840;7.258;2023-03-01T01:30:02;12.55;;;8.27;;
58446;SDS011;44240;51.840;7.258;2023-03-01T01:32:28;9.93;;;8.05;;
58446;SDS011;44240;51.840;7.258;2023-03-01T01:34:54;13.15;;;7.93;;
58446;SDS011;44240;51.840;7.258;2023-03-01T01:37:20;11.10;;;8.38;;
58446;SDS011;44240;51.840;7.258;2023-03-01T01:39:45;9.98;;;8.07;;
58446;SDS011;44240;51.840;7.258;2023-03-01T01:42:15;11.18;;;7.93;;
58446;SDS011;44240;51.840;7.258;2023-03-01T01:44:44;12.55;;;8.05;;
58446;SDS011;44240;51.840;7.258;2023-03-01T01:47:15;13.63;;;9.18;;
58446;SDS011;44240;51.840;7.258;2023-03-01T01:49:53;9.88;;;7.68;;
58446;SDS011;44240;51.840;7.258;2023-03-01T01:52:31;11.70;;;8.30;;
58446;SDS011;44240;51.840;7.258;2023-03-01T01:55:05;14.45;;;8.63;;
58446;SDS011;44240;51.840;7.258;2023-03-01T01:57:35;12.73;;;8.18;;
58446;SDS011;44240;51.840;7.258;2023-03-01T02:00:09;12.43;;;7.85;;
58446;SDS011;44240;51.840;7.258;2023-03-01T02:02:37;10.82;;;8.48;;
58446;SDS011;44240;51.840;7.258;2023-03-01T02:05:46;11.98;;;7.88;;
58446;SDS011;44240;51.840;7.258;2023-03-01T02:07:52;11.88;;;8.35;;
58446;SDS011;44240;51.840;7.258;2023-03-01T02:10:19;11.20;;;7.50;;
58446;SDS011;44240;51.840;7.258;2023-03-01T02:12:45;10.65;;;7.75;;
58446;SDS011;44240;51.840;7.258;2023-03-01T02:15:11;12.40;;;7.93;;
58446;SDS011;44240;51.840;7.258;2023-03-01T02:17:37;11.68;;;7.88;;
58446;SDS011;44240;51.840;7.258;2023-03-01T02:20:06;11.43;;;8.35;;
58446;SDS011;44240;51.840;7.258;2023-03-01T02:22:44;11.85;;;8.40;;
58446;SDS011;44240;51.840;7.258;2023-03-01T02:30:39;11.77;;;8.40;;
58446;SDS011;44240;51.840;7.258;2023-03-01T02:33:26;11.90;;;8.35;;
58446;SDS011;44240;51.840;7.258;2023-03-01T02:35:52;10.48;;;7.78;;
58446;SDS011;44240;51.840;7.258;2023-03-01T02:38:19;12.18;;;8.45;;
58446;SDS011;44240;51.840;7.258;2023-03-01T02:40:46;12.30;;;7.35;;
58446;SDS011;44240;51.840;7.258;2023-03-01T02:43:15;16.38;;;9.13;;
58446;SDS011;44240;51.840;7.258;2023-03-01T02:45:43;11.82;;;8.90;;
58446;SDS011;44240;51.840;7.258;2023-03-01T02:48:13;11.52;;;8.60;;
58446;SDS011;44240;51.840;7.258;2023-03-01T02:50:44;11.30;;;8.48;;
58446;SDS011;44240;51.840;7.258;2023-03-01T02:53:39;14.93;;;8.70;;
58446;SDS011;44240;51.840;7.258;2023-03-01T02:56:13;13.05;;;8.70;;
58446;SDS011;44240;51.840;7.258;2023-03-01T02:58:40;13.20;;;8.38;;
58446;SDS011;44240;51.840;7.258;2023-03-01T03:01:13;13.30;;;8.77;;
58446;SDS011;44240;51.840;7.258;2023-03-01T03:03:40;10.68;;;7.95;;
58446;SDS011;44240;51.840;7.258;2023-03-01T03:06:07;9.63;;;7.60;;
58446;SDS011;44240;51.840;7.258;2023-03-01T03:08:33;13.35;;;8.30;;
58446;SDS011;44240;51.840;7.258;2023-03-01T03:10:58;13.80;;;8.43;;
58446;SDS011;44240;51.840;7.258;2023-03-01T03:13:24;10.93;;;8.00;;
58446;SDS011;44240;51.840;7.258;2023-03-01T03:15:53;13.45;;;8.25;;
58446;SDS011;44240;51.840;7.258;2023-03-01T03:18:19;13.40;;;8.13;;
58446;SDS011;44240;51.840;7.258;2023-03-01T03:20:45;15.38;;;8.05;;
58446;SDS011;44240;51.840;7.258;2023-03-01T03:23:12;11.77;;;8.10;;
58446;SDS011;44240;51.840;7.258;2023-03-01T03:25:38;9.50;;;7.68;;
58446;SDS011;44240;51.840;7.258;2023-03-01T03:28:04;11.52;;;7.97;;
58446;SDS011;44240;51.840;7.258;2023-03-01T03:30:34;14.23;;;8.07;;
58446;SDS011;44240;51.840;7.258;2023-03-01T03:33:01;13.40;;;7.90;;
58446;SDS011;44240;51.840;7.258;2023-03-01T03:35:31;11.52;;;7.82;;
58446;SDS011;44240;51.840;7.258;2023-03-01T03:37:59;11.38;;;8.10;;
58446;SDS011;44240;51.840;7.258;2023-03-01T03:40:27;11.80;;;8.30;;
58446;SDS011;44240;51.840;7.258;2023-03-01T03:43:07;14.77;;;8.75;;
58446;SDS011;44240;51.840;7.258;2023-03-01T03:45:35;13.02;;;8.48;;
58446;SDS011;44240;51.840;7.258;2023-03-01T03:48:01;13.30;;;7.68;;
58446;SDS011;44240;51.840;7.258;2023-03-01T03:50:29;13.88;;;8.95;;
58446;SDS011;44240;51.840;7.258;2023-03-01T03:52:54;11.55;;;8.38;;
58446;SDS011;44240;51.840;7.258;2023-03-01T03:55:20;15.60;;;8.05;;
58446;SDS011;44240;51.840;7.258;2023-03-01T03:57:48;13.48;;;7.90;;
58446;SDS011;44240;51.840;7.258;2023-03-01T04:00:19;11.60;;;8.73;;
58446;SDS011;44240;51.840;7.258;2023-03-01T04:02:47;13.40;;;9.00;;
58446;SDS011;44240;51.840;7.258;2023-03-01T04:05:14;12.93;;;8.32;;
58446;SDS011;44240;51.840;7.258;2023-03-01T04:07:41;14.88;;;8.77;;
58446;SDS011;44240;51.840;7.258;2023-03-01T04:10:09;10.68;;;7.72;;
58446;SDS011;44240;51.840;7.258;2023-03-01T04:12:36;14.07;;;8.15;;
58446;SDS011;44240;51.840;7.258;2023-03-01T04:15:05;13.27;;;8.40;;
58446;SDS011;44240;51.840;7.258;2023-03-01T04:17:45;10.80;;;7.57;;
58446;SDS011;44240;51.840;7.258;2023-03-01T04:20:12;10.93;;;8.10;;
58446;SDS011;44240;51.840;7.258;2023-03-01T04:22:42;12.15;;;8.55;;
58446;SDS011;44240;51.840;7.258;2023-03-01T04:25:11;14.60;;;8.30;;
58446;SDS011;44240;51.840;7.258;2023-03-01T04:27:39;10.60;;;8.15;;
58446;SDS011;44240;51.840;7.258;2023-03-01T04:30:05;12.38;;;8.20;;
58446;SDS011;44240;51.840;7.258;2023-03-01T04:32:32;10.80;;;7.82;;
58446;SDS011;44240;51.840;7.258;2023-03-01T04:34:59;11.05;;;8.38;;
58446;SDS011;44240;51.840;7.258;2023-03-01T04:37:25;13.38;;;8.15;;
58446;SDS011;44240;51.840;7.258;2023-03-01T04:39:51;12.13;;;7.80;;
58446;SDS011;44240;51.840;7.258;2023-03-01T04:42:17;12.55;;;9.00;;
58446;SDS011;44240;51.840;7.258;2023-03-01T04:44:43;11.27;;;8.25;;
58446;SDS011;44240;51.840;7.258;2023-03-01T04:47:09;12.80;;;8.75;;
58446;SDS011;44240;51.840;7.258;2023-03-01T04:49:35;11.40;;;8.07;;
58446;SDS011;44240;51.840;7.258;2023-03-01T04:52:00;14.48;;;8.38;;
58446;SDS011;44240;51.840;7.258;2023-03-01T04:54:29;13.20;;;8.30;;
58446;SDS011;44240;51.840;7.258;2023-03-01T04:56:59;11.77;;;8.27;;
58446;SDS011;44240;51.840;7.258;2023-03-01T04:59:25;11.63;;;8.75;;
58446;SDS011;44240;51.840;7.258;2023-03-01T05:01:52;14.35;;;8.35;;
58446;SDS011;44240;51.840;7.258;2023-03-01T05:04:22;11.02;;;7.93;;
58446;SDS011;44240;51.840;7.258;2023-03-01T05:06:49;12.55;;;8.45;;
58446;SDS011;44240;51.840;7.258;2023-03-01T05:09:15;12.70;;;8.60;;
58446;SDS011;44240;51.840;7.258;2023-03-01T05:11:40;12.77;;;7.88;;
58446;SDS011;44240;51.840;7.258;2023-03-01T05:14:06;11.63;;;8.60;;
58446;SDS011;44240;51.840;7.258;2023-03-01T05:16:32;15.00;;;9.60;;
58446;SDS011;44240;51.840;7.258;2023-03-01T05:18:58;12.82;;;7.93;;
58446;SDS011;44240;51.840;7.258;2023-03-01T05:21:24;12.23;;;8.13;;
58446;SDS011;44240;51.840;7.258;2023-03-01T05:23:50;11.88;;;8.85;;
58446;SDS011;44240;51.840;7.258;2023-03-01T05:26:17;10.98;;;8.38;;
58446;SDS011;44240;51.840;7.258;2023-03-01T05:28:46;12.45;;;8.73;;
58446;SDS011;44240;51.840;7.258;2023-03-01T05:31:12;10.15;;;7.93;;
58446;SDS011;44240;51.840;7.258;2023-03-01T05:33:38;11.23;;;8.35;;
58446;SDS011;44240;51.840;7.258;2023-03-01T05:36:08;11.63;;;8.80;;
58446;SDS011;44240;51.840;7.258;2023-03-01T05:38:34;13.07;;;8.40;;
58446;SDS011;44240;51.840;7.258;2023-03-01T05:41:00;13.15;;;8.73;;
58446;SDS011;44240;51.840;7.258;2023-03-01T05:43:26;12.88;;;8.27;;
58446;SDS011;44240;51.840;7.258;2023-03-01T05:45:58;13.35;;;8.60;;
58446;SDS011;44240;51.840;7.258;2023-03-01T05:48:24;14.18;;;9.82;;
58446;SDS011;44240;51.840;7.258;2023-03-01T05:50:50;19.17;;;12.70;;
58446;SDS011;44240;51.840;7.258;2023-03-01T05:53:17;17.52;;;12.10;;
58446;SDS011;44240;51.840;7.258;2023-03-01T05:55:46;10.88;;;9.30;;
58446;SDS011;44240;51.840;7.258;2023-03-01T05:58:13;13.57;;;9.98;;
58446;SDS011;44240;51.840;7.258;2023-03-01T06:00:42;12.07;;;9.88;;
58446;SDS011;44240;51.840;7.258;2023-03-01T06:03:09;13.73;;;8.95;;
58446;SDS011;44240;51.840;7.258;2023-03-01T06:05:36;12.75;;;9.18;;
58446;SDS011;44240;51.840;7.258;2023-03-01T06:08:03;13.93;;;9.68;;
58446;SDS011;44240;51.840;7.258;2023-03-01T06:10:29;13.20;;;9.63;;
58446;SDS011;44240;51.840;7.258;2023-03-01T06:12:55;14.27;;;9.63;;
58446;SDS011;44240;51.840;7.258;2023-03-01T06:15:20;15.90;;;10.20;;
58446;SDS011;44240;51.840;7.258;2023-03-01T06:17:46;12.55;;;8.93;;
58446;SDS011;44240;51.840;7.258;2023-03-01T06:20:13;14.30;;;8.50;;
58446;SDS011;44240;51.840;7.258;2023-03-01T06:22:41;17.10;;;9.07;;
58446;SDS011;44240;51.840;7.258;2023-03-01T06:25:07;13.93;;;10.25;;
58446;SDS011;44240;51.840;7.258;2023-03-01T06:27:34;12.95;;;8.38;;
58446;SDS011;44240;51.840;7.258;2023-03-01T06:29:59;13.80;;;9.05;;
58446;SDS011;44240;51.840;7.258;2023-03-01T06:32:25;12.10;;;8.77;;
58446;SDS011;44240;51.840;7.258;2023-03-01T06:34:51;19.13;;;9.38;;
58446;SDS011;44240;51.840;7.258;2023-03-01T06:37:16;14.02;;;9.80;;
58446;SDS011;44240;51.840;7.258;2023-03-01T06:39:42;14.50;;;9.75;;
58446;SDS011;44240;51.840;7.258;2023-03-01T06:42:07;13.13;;;9.68;;
58446;SDS011;44240;51.840;7.258;2023-03-01T06:44:35;13.15;;;9.73;;
58446;SDS011;44240;51.840;7.258;2023-03-01T06:47:00;13.15;;;8.80;;
58446;SDS011;44240;51.840;7.258;2023-03-01T06:49:26;14.23;;;10.13;;
58446;SDS011;44240;51.840;7.258;2023-03-01T06:51:52;14.07;;;9.80;;
58446;SDS011;44240;51.840;7.258;2023-03-01T06:54:18;14.75;;;10.02;;
58446;SDS011;44240;51.840;7.258;2023-03-01T06:56:46;15.48;;;9.90;;
58446;SDS011;44240;51.840;7.258;2023-03-01T06:59:12;13.07;;;9.43;;
58446;SDS011;44240;51.840;7.258;2023-03-01T07:01:37;14.45;;;9.93;;
58446;SDS011;44240;51.840;7.258;2023-03-01T07:04:03;15.63;;;9.77;;
58446;SDS011;44240;51.840;7.258;2023-03-01T07:06:29;18.02;;;9.07;;
58446;SDS011;44240;51.840;7.258;2023-03-01T07:08:55;24.15;;;9.57;;
58446;SDS011;44240;51.840;7.258;2023-03-01T07:11:20;13.73;;;9.30;;
58446;SDS011;44240;51.840;7.258;2023-03-01T07:13:46;12.57;;;8.93;;
58446;SDS011;44240;51.840;7.258;2023-03-01T07:16:12;11.50;;;8.68;;
58446;SDS011;44240;51.840;7.258;2023-03-01T07:18:39;12.18;;;9.02;;
58446;SDS011;44240;51.840;7.258;2023-03-01T07:21:05;14.05;;;9.98;;
58446;SDS011;44240;51.840;7.258;2023-03-01T07:23:31;13.30;;;8.95;;
58446;SDS011;44240;51.840;7.258;2023-03-01T07:25:57;17.23;;;9.60;;
58446;SDS011;44240;51.840;7.258;2023-03-01T07:28:23;15.32;;;10.07;;
58446;SDS011;44240;51.840;7.258;2023-03-01T07:30:48;14.65;;;9.52;;
58446;SDS011;44240;51.840;7.258;2023-03-01T07:33:14;14.52;;;9.50;;
58446;SDS011;44240;51.840;7.258;2023-03-01T07:35:40;11.45;;;9.05;;
58446;SDS011;44240;51.840;7.258;2023-03-01T07:38:05;14.10;;;9.07;;
58446;SDS011;44240;51.840;7.258;2023-03-01T07:40:31;14.23;;;8.55;;
58446;SDS011;44240;51.840;7.258;2023-03-01T07:42:56;12.05;;;9.02;;
58446;SDS011;44240;51.840;7.258;2023-03-01T07:45:23;13.55;;;8.57;;
58446;SDS011;44240;51.840;7.258;2023-03-01T07:47:50;12.27;;;9.10;;
58446;SDS011;44240;51.840;7.258;2023-03-01T07:50:16;14.05;;;8.27;;
58446;SDS011;44240;51.840;7.258;2023-03-01T07:52:41;15.63;;;9.65;;
58446;SDS011;44240;51.840;7.258;2023-03-01T07:55:09;13.07;;;8.98;;
58446;SDS011;44240;51.840;7.258;2023-03-01T07:57:35;15.32;;;8.43;;
58446;SDS011;44240;51.840;7.258;2023-03-01T08:00:00;15.52;;;9.20;;
58446;SDS011;44240;51.840;7.258;2023-03-01T08:02:26;16.00;;;9.95;;
58446;SDS011;44240;51.840;7.258;2023-03-01T08:04:51;12.48;;;9.13;;
58446;SDS011;44240;51.840;7.258;2023-03-01T08:07:17;13.95;;;9.20;;
58446;SDS011;44240;51.840;7.258;2023-03-01T08:09:42;11.27;;;8.85;;
58446;SDS011;44240;51.840;7.258;2023-03-01T08:12:08;13.48;;;8.27;;
58446;SDS011;44240;51.840;7.258;2023-03-01T08:14:33;11.55;;;7.90;;
58446;SDS011;44240;51.840;7.258;2023-03-01T08:16:59;12.30;;;8.98;;
58446;SDS011;44240;51.840;7.258;2023-03-01T08:19:24;13.38;;;8.90;;
58446;SDS011;44240;51.840;7.258;2023-03-01T08:21:50;10.07;;;8.10;;
58446;SDS011;44240;51.840;7.258;2023-03-01T08:24:15;16.30;;;8.38;;
58446;SDS011;44240;51.840;7.258;2023-03-01T08:26:41;16.67;;;8.60;;
58446;SDS011;44240;51.840;7.258;2023-03-01T08:29:06;10.82;;;8.45;;
58446;SDS011;44240;51.840;7.258;2023-03-01T08:31:33;9.73;;;7.88;;
58446;SDS011;44240;51.840;7.258;2023-03-01T08:34:01;16.48;;;9.35;;
58446;SDS011;44240;51.840;7.258;2023-03-01T08:36:33;15.38;;;8.57;;
58446;SDS011;44240;51.840;7.258;2023-03-01T08:39:05;13.25;;;7.78;;
58446;SDS011;44240;51.840;7.258;2023-03-01T08:41:31;11.20;;;8.38;;
58446;SDS011;44240;51.840;7.258;2023-03-01T08:43:57;10.48;;;7.57;;
58446;SDS011;44240;51.840;7.258;2023-03-01T08:46:26;12.68;;;7.80;;
58446;SDS011;44240;51.840;7.258;2023-03-01T08:48:53;13.98;;;7.55;;
58446;SDS011;44240;51.840;7.258;2023-03-01T08:51:19;12.85;;;7.75;;
58446;SDS011;44240;51.840;7.258;2023-03-01T08:53:45;11.15;;;7.88;;
58446;SDS011;44240;51.840;7.258;2023-03-01T08:56:11;9.77;;;7.53;;
58446;SDS011;44240;51.840;7.258;2023-03-01T08:58:38;10.60;;;7.88;;
58446;SDS011;44240;51.840;7.258;2023-03-01T09:01:10;11.38;;;8.07;;
58446;SDS011;44240;51.840;7.258;2023-03-01T09:03:36;12.60;;;7.80;;
58446;SDS011;44240;51.840;7.258;2023-03-01T09:06:02;12.80;;;7.53;;
58446;SDS011;44240;51.840;7.258;2023-03-01T09:08:29;13.38;;;8.38;;
58446;SDS011;44240;51.840;7.258;2023-03-01T09:10:55;14.82;;;8.90;;
58446;SDS011;44240;51.840;7.258;2023-03-01T09:13:21;12.80;;;8.25;;
58446;SDS011;44240;51.840;7.258;2023-03-01T09:15:50;9.20;;;7.43;;
58446;SDS011;44240;51.840;7.258;2023-03-01T09:18:16;11.50;;;7.95;;
58446;SDS011;44240;51.840;7.258;2023-03-01T09:20:42;11.55;;;7.57;;
58446;SDS011;44240;51.840;7.258;2023-03-01T09:23:07;9.43;;;7.70;;
58446;SDS011;44240;51.840;7.258;2023-03-01T09:25:33;10.50;;;7.90;;
58446;SDS011;44240;51.840;7.258;2023-03-01T09:27:59;14.02;;;7.35;;
58446;SDS011;44240;51.840;7.258;2023-03-01T09:30:25;16.42;;;8.52;;
58446;SDS011;44240;51.840;7.258;2023-03-01T09:32:51;11.75;;;8.65;;
58446;SDS011;44240;51.840;7.258;2023-03-01T09:35:17;10.93;;;7.15;;
58446;SDS011;44240;51.840;7.258;2023-03-01T09:37:45;12.57;;;7.38;;
58446;SDS011;44240;51.840;7.258;2023-03-01T09:40:15;12.00;;;7.50;;
58446;SDS011;44240;51.840;7.258;2023-03-01T09:43:25;9.15;;;7.15;;
58446;SDS011;44240;51.840;7.258;2023-03-01T09:45:34;13.15;;;7.40;;
58446;SDS011;44240;51.840;7.258;2023-03-01T09:48:04;13.45;;;6.88;;
58446;SDS011;44240;51.840;7.258;2023-03-01T09:50:35;9.40;;;6.10;;
58446;SDS011;44240;51.840;7.258;2023-03-01T09:56:28;10.32;;;6.85;;
58446;SDS011;44240;51.840;7.258;2023-03-01T09:58:51;11.77;;;7.10;;
58446;SDS011;44240;51.840;7.258;2023-03-01T10:01:34;10.23;;;6.53;;
58446;SDS011;44240;51.840;7.258;2023-03-01T10:09:39;11.52;;;7.00;;
58446;SDS011;44240;51.840;7.258;2023-03-01T10:12:10;13.77;;;7.53;;
58446;SDS011;44240;51.840;7.258;2023-03-01T10:15:18;18.75;;;6.75;;
58446;SDS011;44240;51.840;7.258;2023-03-01T10:20:52;10.85;;;6.15;;
58446;SDS011;44240;51.840;7.258;2023-03-01T10:23:27;12.60;;;6.90;;
58446;SDS011;44240;51.840;7.258;2023-03-01T10:31:24;11.05;;;6.97;;
58446;SDS011;44240;51.840;7.258;2023-03-01T10:34:02;10.35;;;7.38;;
58446;SDS011;44240;51.840;7.258;2023-03-01T10:36:32;12.50;;;7.38;;
58446;SDS011;44240;51.840;7.258;2023-03-01T10:38:58;12.45;;;8.10;;
58446;SDS011;44240;51.840;7.258;2023-03-01T10:41:25;13.25;;;8.07;;
58446;SDS011;44240;51.840;7.258;2023-03-01T10:46:29;16.65;;;7.88;;
58446;SDS011;44240;51.840;7.258;2023-03-01T10:51:46;13.32;;;7.63;;
58446;SDS011;44240;51.840;7.258;2023-03-01T10:56:57;12.98;;;7.55;;
58446;SDS011;44240;51.840;7.258;2023-03-01T11:02:03;15.52;;;7.97;;
58446;SDS011;44240;51.840;7.258;2023-03-01T11:04:29;9.93;;;7.22;;
58446;SDS011;44240;51.840;7.258;2023-03-01T11:06:58;11.70;;;7.78;;
58446;SDS011;44240;51.840;7.258;2023-03-01T11:09:24;9.32;;;6.93;;
58446;SDS011;44240;51.840;7.258;2023-03-01T11:11:55;11.52;;;7.65;;
58446;SDS011;44240;51.840;7.258;2023-03-01T11:14:26;11.32;;;7.18;;
58446;SDS011;44240;51.840;7.258;2023-03-01T11:17:03;13.38;;;7.10;;
58446;SDS011;44240;51.840;7.258;2023-03-01T11:19:28;11.27;;;7.53;;
58446;SDS011;44240;51.840;7.258;2023-03-01T11:24:26;25.50;;;9.77;;
58446;SDS011;44240;51.840;7.258;2023-03-01T11:27:04;12.30;;;7.53;;
58446;SDS011;44240;51.840;7.258;2023-03-01T11:29:38;10.48;;;7.35;;
58446;SDS011;44240;51.840;7.258;2023-03-01T11:32:12;11.48;;;8.13;;
58446;SDS011;44240;51.840;7.258;2023-03-01T11:40:37;13.52;;;8.07;;
58446;SDS011;44240;51.840;7.258;2023-03-01T11:43:30;12.27;;;7.97;;
58446;SDS011;44240;51.840;7.258;2023-03-01T11:48:49;14.13;;;8.35;;
58446;SDS011;44240;51.840;7.258;2023-03-01T11:51:45;16.05;;;8.50;;
58446;SDS011;44240;51.840;7.258;2023-03-01T11:59:41;12.18;;;7.97;;
58446;SDS011;44240;51.840;7.258;2023-03-01T12:02:40;13.65;;;9.30;;
58446;SDS011;44240;51.840;7.258;2023-03-01T12:08:33;11.75;;;8.88;;
58446;SDS011;44240;51.840;7.258;2023-03-01T12:14:11;12.15;;;7.80;;
58446;SDS011;44240;51.840;7.258;2023-03-01T12:22:04;16.77;;;9.35;;
58446;SDS011;44240;51.840;7.258;2023-03-01T12:30:16;16.80;;;10.63;;
58446;SDS011;44240;51.840;7.258;2023-03-01T12:43:58;12.13;;;8.73;;
58446;SDS011;44240;51.840;7.258;2023-03-01T12:46:44;13.18;;;9.05;;
58446;SDS011;44240;51.840;7.258;2023-03-01T12:50:18;14.63;;;8.95;;
58446;SDS011;44240;51.840;7.258;2023-03-01T12:52:33;11.65;;;7.80;;
58446;SDS011;44240;51.840;7.258;2023-03-01T12:55:08;11.40;;;8.77;;
58446;SDS011;44240;51.840;7.258;2023-03-01T12:57:54;16.50;;;10.15;;
58446;SDS011;44240;51.840;7.258;2023-03-01T13:00:32;18.08;;;9.95;;
58446;SDS011;44240;51.840;7.258;2023-03-01T13:03:28;12.63;;;9.20;;
58446;SDS011;44240;51.840;7.258;2023-03-01T13:11:43;12.52;;;8.70;;
58446;SDS011;44240;51.840;7.258;2023-03-01T13:16:48;14.48;;;9.73;;
58446;SDS011;44240;51.840;7.258;2023-03-01T13:19:15;14.30;;;8.82;;
58446;SDS011;44240;51.840;7.258;2023-03-01T13:21:54;12.02;;;8.90;;
58446;SDS011;44240;51.840;7.258;2023-03-01T13:24:24;13.60;;;9.23;;
58446;SDS011;44240;51.840;7.258;2023-03-01T13:29:42;12.75;;;8.52;;
58446;SDS011;44240;51.840;7.258;2023-03-01T13:32:18;12.55;;;7.88;;
58446;SDS011;44240;51.840;7.258;2023-03-01T13:37:42;9.80;;;7.57;;
58446;SDS011;44240;51.840;7.258;2023-03-01T13:42:43;13.55;;;8.80;;
58446;SDS011;44240;51.840;7.258;2023-03-01T13:45:19;11.13;;;7.38;;
58446;SDS011;44240;51.840;7.258;2023-03-01T13:48:23;9.30;;;7.22;;
58446;SDS011;44240;51.840;7.258;2023-03-01T13:50:55;11.73;;;6.90;;
58446;SDS011;44240;51.840;7.258;2023-03-01T13:53:26;9.82;;;7.05;;
58446;SDS011;44240;51.840;7.258;2023-03-01T13:56:00;9.90;;;7.07;;
58446;SDS011;44240;51.840;7.258;2023-03-01T13:58:29;11.48;;;6.97;;
58446;SDS011;44240;51.840;7.258;2023-03-01T14:00:57;11.35;;;7.15;;
58446;SDS011;44240;51.840;7.258;2023-03-01T14:03:27;9.13;;;7.13;;
58446;SDS011;44240;51.840;7.258;2023-03-01T14:08:24;9.55;;;6.60;;
58446;SDS011;44240;51.840;7.258;2023-03-01T14:10:54;9.35;;;6.60;;
58446;SDS011;44240;51.840;7.258;2023-03-01T14:13:36;9.95;;;6.85;;
58446;SDS011;44240;51.840;7.258;2023-03-01T14:19:16;9.73;;;6.28;;
58446;SDS011;44240;51.840;7.258;2023-03-01T14:21:43;9.02;;;7.00;;
58446;SDS011;44240;51.840;7.258;2023-03-01T14:24:20;10.57;;;6.72;;
58446;SDS011;44240;51.840;7.258;2023-03-01T14:26:47;11.70;;;7.88;;
58446;SDS011;44240;51.840;7.258;2023-03-01T14:32:10;10.30;;;6.45;;
58446;SDS011;44240;51.840;7.258;2023-03-01T14:34:49;6.65;;;5.45;;
58446;SDS011;44240;51.840;7.258;2023-03-01T14:37:22;9.68;;;6.65;;
58446;SDS011;44240;51.840;7.258;2023-03-01T14:39:52;9.02;;;6.78;;
58446;SDS011;44240;51.840;7.258;2023-03-01T14:42:18;11.50;;;6.85;;
58446;SDS011;44240;51.840;7.258;2023-03-01T14:44:47;10.55;;;6.57;;
58446;SDS011;44240;51.840;7.258;2023-03-01T14:47:16;8.50;;;5.85;;
58446;SDS011;44240;51.840;7.258;2023-03-01T14:49:58;8.18;;;6.03;;
58446;SDS011;44240;51.840;7.258;2023-03-01T14:52:34;8.50;;;6.60;;
58446;SDS011;44240;51.840;7.258;2023-03-01T14:55:05;7.40;;;6.03;;
58446;SDS011;44240;51.840;7.258;2023-03-01T14:57:42;9.90;;;6.78;;
58446;SDS011;44240;51.840;7.258;2023-03-01T15:00:10;9.77;;;6.70;;
58446;SDS011;44240;51.840;7.258;2023-03-01T15:02:56;7.78;;;6.47;;
58446;SDS011;44240;51.840;7.258;2023-03-01T15:05:27;8.43;;;6.05;;
58446;SDS011;44240;51.840;7.258;2023-03-01T15:07:56;8.88;;;6.45;;
58446;SDS011;44240;51.840;7.258;2023-03-01T15:10:25;8.70;;;6.72;;
58446;SDS011;44240;51.840;7.258;2023-03-01T15:12:54;8.00;;;7.07;;
58446;SDS011;44240;51.840;7.258;2023-03-01T15:15:22;7.60;;;6.75;;
58446;SDS011;44240;51.840;7.258;2023-03-01T15:20:26;8.85;;;6.88;;
58446;SDS011;44240;51.840;7.258;2023-03-01T15:22:54;8.85;;;6.45;;
58446;SDS011;44240;51.840;7.258;2023-03-01T15:25:22;10.32;;;7.40;;
58446;SDS011;44240;51.840;7.258;2023-03-01T15:27:51;9.43;;;6.38;;
58446;SDS011;44240;51.840;7.258;2023-03-01T15:30:18;8.60;;;7.03;;
58446;SDS011;44240;51.840;7.258;2023-03-01T15:32:48;12.25;;;7.40;;
58446;SDS011;44240;51.840;7.258;2023-03-01T15:35:44;8.05;;;6.63;;
58446;SDS011;44240;51.840;7.258;2023-03-01T15:41:01;8.90;;;6.82;;
58446;SDS011;44240;51.840;7.258;2023-03-01T15:43:42;7.20;;;6.10;;
58446;SDS011;44240;51.840;7.258;2023-03-01T15:46:18;8.70;;;6.65;;
58446;SDS011;44240;51.840;7.258;2023-03-01T15:48:48;9.30;;;6.53;;
58446;SDS011;44240;51.840;7.258;2023-03-01T15:51:17;8.95;;;7.07;;
58446;SDS011;44240;51.840;7.258;2023-03-01T15:53:48;8.98;;;7.18;;
58446;SDS011;44240;51.840;7.258;2023-03-01T15:56:16;10.98;;;7.38;;
58446;SDS011;44240;51.840;7.258;2023-03-01T15:58:41;9.82;;;7.25;;
58446;SDS011;44240;51.840;7.258;2023-03-01T16:01:13;10.23;;;6.80;;
58446;SDS011;44240;51.840;7.258;2023-03-01T16:03:41;9.45;;;7.55;;
58446;SDS011;44240;51.840;7.258;2023-03-01T16:06:08;8.43;;;6.63;;
58446;SDS011;44240;51.840;7.258;2023-03-01T16:08:35;8.77;;;6.88;;
58446;SDS011;44240;51.840;7.258;2023-03-01T16:11:01;8.07;;;6.85;;
58446;SDS011;44240;51.840;7.258;2023-03-01T16:13:29;11.15;;;6.63;;
58446;SDS011;44240;51.840;7.258;2023-03-01T16:15:56;7.35;;;6.03;;
58446;SDS011;44240;51.840;7.258;2023-03-01T16:18:22;11.52;;;7.07;;
58446;SDS011;44240;51.840;7.258;2023-03-01T16:20:47;8.40;;;6.05;;
58446;SDS011;44240;51.840;7.258;2023-03-01T16:23:14;9.55;;;7.32;;
58446;SDS011;44240;51.840;7.258;2023-03-01T16:25:40;8.20;;;6.50;;
58446;SDS011;44240;51.840;7.258;2023-03-01T16:28:05;8.75;;;7.03;;
58446;SDS011;44240;51.840;7.258;2023-03-01T16:30:35;9.07;;;6.70;;
58446;SDS011;44240;51.840;7.258;2023-03-01T16:33:01;10.25;;;7.28;;
58446;SDS011;44240;51.840;7.258;2023-03-01T16:35:27;11.30;;;7.07;;
58446;SDS011;44240;51.840;7.258;2023-03-01T16:37:53;9.65;;;6.57;;